createdAt,value
2022-10-14T00:00:42.801Z,1.88
2022-10-14T00:03:09.398Z,1.80
2022-10-14T00:05:40.577Z,1.55
2022-10-14T00:08:09.653Z,1.63
2022-10-14T00:10:39.738Z,1.92
2022-10-14T00:13:06.780Z,2.05
2022-10-14T00:15:40.700Z,1.60
2022-10-14T00:18:09.644Z,1.73
2022-10-14T00:20:36.594Z,1.98
2022-10-14T00:23:03.538Z,1.50
2022-10-14T00:25:30.510Z,1.70
2022-10-14T00:27:57.055Z,2.00
2022-10-14T00:30:23.722Z,1.65
2022-10-14T00:32:50.409Z,1.70
2022-10-14T00:35:17.190Z,1.50
2022-10-14T00:37:43.921Z,1.75
2022-10-14T00:40:10.993Z,1.50
2022-10-14T00:42:37.546Z,1.63
2022-10-14T00:45:19.839Z,1.60
2022-10-14T00:47:50.055Z,1.60
2022-10-14T00:50:17.408Z,1.52
2022-10-14T00:52:45.184Z,1.55
2022-10-14T00:55:19.245Z,1.48
2022-10-14T00:57:46.288Z,1.63
2022-10-14T01:00:16.387Z,1.70
2022-10-14T01:02:43.171Z,1.60
2022-10-14T01:05:13.318Z,1.40
2022-10-14T01:07:48.968Z,1.73
2022-10-14T01:10:31.175Z,1.40
2022-10-14T01:13:11.020Z,1.73
2022-10-14T01:15:49.914Z,1.40
2022-10-14T01:18:47.083Z,1.75
2022-10-14T01:21:22.499Z,1.58
2022-10-14T01:24:17.275Z,1.40
2022-10-14T01:27:17.915Z,1.50
2022-10-14T01:30:23.118Z,1.52
2022-10-14T01:32:55.187Z,1.40
2022-10-14T01:35:41.819Z,1.52
2022-10-14T01:38:16.922Z,1.45
2022-10-14T01:41:00.503Z,1.50
2022-10-14T01:43:31.107Z,1.40
2022-10-14T01:46:00.553Z,1.30
2022-10-14T01:50:59.256Z,1.33
2022-10-14T01:53:32.141Z,1.30
2022-10-14T01:56:02.147Z,1.35
2022-10-14T01:58:33.920Z,1.30
2022-10-14T02:01:06.334Z,1.52
2022-10-14T02:03:44.151Z,1.55
2022-10-14T02:06:39.133Z,1.25
2022-10-14T02:09:19.096Z,1.38
2022-10-14T02:12:03.186Z,1.35
2022-10-14T02:14:44.250Z,1.02
2022-10-14T02:17:25.530Z,1.33
2022-10-14T02:20:04.606Z,1.52
2022-10-14T02:22:39.252Z,1.30
2022-10-14T02:25:15.872Z,1.38
2022-10-14T02:27:45.514Z,1.30
2022-10-14T02:30:13.141Z,1.75
2022-10-14T02:32:41.603Z,1.33
2022-10-14T02:35:14.903Z,1.30
2022-10-14T02:37:42.108Z,1.15
2022-10-14T02:40:17.868Z,0.90
2022-10-14T02:42:44.451Z,1.50
2022-10-14T02:45:13.157Z,1.17
2022-10-14T02:47:40.258Z,1.30
2022-10-14T02:50:07.604Z,1.00
2022-10-14T02:52:34.361Z,1.58
2022-10-14T02:55:01.151Z,1.20
2022-10-14T02:57:28.130Z,1.13
2022-10-14T02:59:56.817Z,1.00
2022-10-14T03:02:24.849Z,1.10
2022-10-14T03:04:51.630Z,1.40
2022-10-14T03:07:18.427Z,0.98
2022-10-14T03:09:49.096Z,1.10
2022-10-14T03:12:17.248Z,1.05
2022-10-14T03:14:44.729Z,1.13
2022-10-14T03:17:14.701Z,1.08
2022-10-14T03:19:43.637Z,1.23
2022-10-14T03:22:12.726Z,1.23
2022-10-14T03:24:40.569Z,1.00
2022-10-14T03:27:27.485Z,0.93
2022-10-14T03:29:59.854Z,0.90
2022-10-14T03:32:26.714Z,1.00
2022-10-14T03:35:28.500Z,1.08
2022-10-14T03:37:56.608Z,1.00
2022-10-14T03:40:30.716Z,1.10
2022-10-14T03:43:01.199Z,1.10
2022-10-14T03:45:35.549Z,0.93
2022-10-14T03:48:03.774Z,1.00
2022-10-14T03:50:30.642Z,1.23
2022-10-14T03:52:57.686Z,1.13
2022-10-14T03:55:34.419Z,1.30
2022-10-14T03:58:02.754Z,0.95
2022-10-14T04:00:30.875Z,0.95
2022-10-14T04:03:15.251Z,0.90
2022-10-14T04:05:43.626Z,0.88
2022-10-14T04:08:15.805Z,0.98
2022-10-14T04:10:53.662Z,0.93
2022-10-14T04:13:20.683Z,1.13
2022-10-14T04:15:47.590Z,1.15
2022-10-14T04:18:21.105Z,0.93
2022-10-14T04:20:49.413Z,0.85
2022-10-14T04:25:48.898Z,0.82
2022-10-14T04:28:16.164Z,0.80
2022-10-14T04:30:57.358Z,1.00
2022-10-14T04:33:28.864Z,1.10
2022-10-14T04:36:04.387Z,0.98
2022-10-14T04:38:35.751Z,0.85
2022-10-14T04:41:06.508Z,0.95
2022-10-14T04:43:34.409Z,0.75
2022-10-14T04:46:15.603Z,0.77
2022-10-14T04:48:42.246Z,1.05
2022-10-14T04:51:09.736Z,1.05
2022-10-14T04:53:53.344Z,0.85
2022-10-14T04:56:33.887Z,1.20
2022-10-14T04:59:03.159Z,0.90
2022-10-14T05:01:48.379Z,1.08
2022-10-14T05:04:15.809Z,0.73
2022-10-14T05:06:44.903Z,1.15
2022-10-14T05:09:14.476Z,1.20
2022-10-14T05:11:41.257Z,0.80
2022-10-14T05:14:07.845Z,0.57
2022-10-14T05:16:36.802Z,1.00
2022-10-14T05:19:03.741Z,0.63
2022-10-14T05:21:32.215Z,0.90
2022-10-14T05:24:21.393Z,0.73
2022-10-14T05:26:49.099Z,1.10
2022-10-14T05:29:16.004Z,0.90
2022-10-14T05:31:42.600Z,1.10
2022-10-14T05:34:47.726Z,1.00
2022-10-14T05:37:24.816Z,0.70
2022-10-14T05:39:52.967Z,1.05
2022-10-14T05:42:23.497Z,1.00
2022-10-14T05:44:53.459Z,0.90
2022-10-14T05:47:20.478Z,0.82
2022-10-14T05:49:51.387Z,0.80
2022-10-14T05:52:19.077Z,0.90
2022-10-14T05:54:45.871Z,0.85
2022-10-14T05:57:17.603Z,0.82
2022-10-14T05:59:44.192Z,0.80
2022-10-14T06:02:12.372Z,0.80
2022-10-14T06:04:42.695Z,0.73
2022-10-14T06:07:10.433Z,0.73
2022-10-14T06:09:38.832Z,1.10
2022-10-14T06:12:05.999Z,1.10
2022-10-14T06:14:33.353Z,0.82
2022-10-14T06:17:00.650Z,0.80
2022-10-14T06:19:27.428Z,0.85
2022-10-14T06:21:54.902Z,0.90
2022-10-14T06:24:21.764Z,0.80
2022-10-14T06:26:48.629Z,1.17
2022-10-14T06:29:16.099Z,0.88
2022-10-14T06:31:43.379Z,0.70
2022-10-14T06:34:09.990Z,0.73
2022-10-14T06:36:37.045Z,0.80
2022-10-14T06:39:05.086Z,0.77
2022-10-14T06:41:32.824Z,0.88
2022-10-14T06:43:59.523Z,0.95
2022-10-14T06:46:26.213Z,0.70
2022-10-14T06:48:52.879Z,0.88
2022-10-14T06:51:19.488Z,0.90
2022-10-14T06:53:46.094Z,0.80
2022-10-14T06:56:12.744Z,0.68
2022-10-14T06:58:39.565Z,0.73
2022-10-14T07:01:07.751Z,0.90
2022-10-14T07:03:36.678Z,0.90
2022-10-14T07:06:05.162Z,0.90
2022-10-14T07:08:32.332Z,0.80
2022-10-14T07:10:58.912Z,0.90
2022-10-14T07:13:25.551Z,0.70
2022-10-14T07:15:52.427Z,0.70
2022-10-14T07:18:19.422Z,0.65
2022-10-14T07:20:46.754Z,0.95
2022-10-14T07:23:13.840Z,1.02
2022-10-14T07:25:40.452Z,1.10
2022-10-14T07:28:07.378Z,0.90
2022-10-14T07:30:34.360Z,1.10
2022-10-14T07:33:01.118Z,1.05
2022-10-14T07:35:28.116Z,2.03
2022-10-14T07:37:55.464Z,2.20
2022-10-14T07:40:22.546Z,2.83
2022-10-14T07:42:49.363Z,2.60
2022-10-14T07:45:18.327Z,3.20
2022-10-14T07:47:47.759Z,3.50
2022-10-14T07:52:40.775Z,3.92
2022-10-14T07:55:07.903Z,3.95
2022-10-14T07:57:34.650Z,4.30
2022-10-14T08:00:01.513Z,4.10
2022-10-14T08:02:38.628Z,3.60
2022-10-14T08:05:33.043Z,4.57
2022-10-14T08:07:52.567Z,4.07
2022-10-14T08:10:19.336Z,4.72
2022-10-14T08:12:46.288Z,4.13
2022-10-14T08:15:12.941Z,3.97
2022-10-14T08:17:39.791Z,4.10
2022-10-14T08:20:07.000Z,3.88
2022-10-14T08:22:33.703Z,4.70
2022-10-14T08:25:00.304Z,4.47
2022-10-14T08:27:26.909Z,4.70
2022-10-14T08:29:54.582Z,4.75
2022-10-14T08:32:23.471Z,4.22
2022-10-14T08:37:17.054Z,4.38
2022-10-14T08:39:43.933Z,4.47
2022-10-14T08:42:29.480Z,3.97
2022-10-14T08:45:09.040Z,4.45
2022-10-14T08:47:45.958Z,4.70
2022-10-14T08:50:43.551Z,4.75
2022-10-14T08:53:28.331Z,5.07
2022-10-14T08:56:00.467Z,4.70
2022-10-14T08:58:47.364Z,4.95
2022-10-14T09:01:23.010Z,5.00
2022-10-14T09:03:52.885Z,4.60
2022-10-14T09:06:31.932Z,4.82
2022-10-14T09:09:16.568Z,4.88
2022-10-14T09:11:48.719Z,5.00
2022-10-14T09:14:29.311Z,6.35
2022-10-14T09:17:06.427Z,5.97
2022-10-14T09:19:38.477Z,5.25
2022-10-14T09:22:13.341Z,5.20
2022-10-14T09:24:41.814Z,5.30
2022-10-14T09:27:23.757Z,5.50
2022-10-14T09:29:54.659Z,5.50
2022-10-14T09:32:35.473Z,5.05
2022-10-14T09:35:02.693Z,4.57
2022-10-14T09:37:34.942Z,5.00
2022-10-14T09:40:10.671Z,5.53
2022-10-14T09:42:51.730Z,5.32
2022-10-14T09:45:22.724Z,5.40
2022-10-14T09:47:56.242Z,4.80
2022-10-14T09:50:27.850Z,4.90
2022-10-14T09:53:10.909Z,4.93
2022-10-14T09:55:46.838Z,4.80
2022-10-14T09:58:17.848Z,4.88
2022-10-14T10:00:46.332Z,5.13
2022-10-14T10:03:32.512Z,4.70
2022-10-14T10:06:10.750Z,5.68
2022-10-14T10:08:41.324Z,6.00
2022-10-14T10:11:13.783Z,7.15
2022-10-14T10:13:46.824Z,5.88
2022-10-14T10:16:39.917Z,6.80
2022-10-14T10:19:29.311Z,6.22
2022-10-14T10:24:41.822Z,6.95
2022-10-14T10:27:29.169Z,7.05
2022-10-14T10:29:56.274Z,7.03
2022-10-14T10:32:43.420Z,7.20
2022-10-14T10:35:28.130Z,6.72
2022-10-14T10:38:13.771Z,7.07
2022-10-14T10:41:00.142Z,6.18
2022-10-14T10:43:26.961Z,6.90
2022-10-14T10:45:59.591Z,6.65
2022-10-14T10:48:39.987Z,6.30
2022-10-14T10:51:12.743Z,6.30
2022-10-14T10:54:01.396Z,6.88
2022-10-14T12:06:34.458Z,5.82
2022-10-14T12:11:41.510Z,5.90
2022-10-14T12:14:20.050Z,5.63
2022-10-14T12:16:48.690Z,5.47
2022-10-14T12:19:29.539Z,6.00
2022-10-14T12:22:09.336Z,5.68
2022-10-14T12:24:48.120Z,6.30
2022-10-14T12:27:15.798Z,5.72
2022-10-14T12:29:52.684Z,6.05
2022-10-14T12:32:27.294Z,6.38
2022-10-14T12:34:55.569Z,6.47
2022-10-14T12:37:28.821Z,5.82
2022-10-14T12:40:05.726Z,6.45
2022-10-14T12:42:44.578Z,6.45
2022-10-14T12:45:26.198Z,6.22
2022-10-14T12:48:19.240Z,5.88
2022-10-14T12:50:48.532Z,5.78
2022-10-14T12:58:24.785Z,5.85
2022-10-14T13:01:07.244Z,5.75
2022-10-14T13:03:43.985Z,5.97
2022-10-14T13:06:31.086Z,5.68
2022-10-14T13:09:31.898Z,6.00
2022-10-14T13:11:58.627Z,5.50
2022-10-14T13:14:35.476Z,5.63
2022-10-14T13:17:04.195Z,5.65
2022-10-14T13:19:33.526Z,5.70
2022-10-14T13:22:05.595Z,5.55
2022-10-14T13:24:44.129Z,5.53
2022-10-14T13:27:22.806Z,5.20
2022-10-14T13:29:52.502Z,5.78
2022-10-14T13:32:40.131Z,6.13
2022-10-14T13:35:30.894Z,4.47
2022-10-14T13:38:00.645Z,4.85
2022-10-14T13:40:36.585Z,5.53
2022-10-14T13:43:15.078Z,4.95
2022-10-14T13:45:45.386Z,4.57
2022-10-14T13:48:41.186Z,5.13
2022-10-14T13:51:24.666Z,4.80
2022-10-14T13:54:20.587Z,5.28
2022-10-14T13:57:38.384Z,4.38
2022-10-14T14:02:44.585Z,4.13
2022-10-14T14:05:19.883Z,4.95
2022-10-14T14:08:34.926Z,4.47
2022-10-14T14:10:51.410Z,4.13
2022-10-14T14:13:24.718Z,4.30
2022-10-14T14:15:53.449Z,4.65
2022-10-14T14:18:49.314Z,4.03
2022-10-14T14:21:26.577Z,3.83
2022-10-14T14:23:55.935Z,3.80
2022-10-14T14:28:55.353Z,4.13
2022-10-14T14:31:30.318Z,4.10
2022-10-14T14:34:04.747Z,3.80
2022-10-14T14:36:50.075Z,4.32
2022-10-14T14:39:26.579Z,3.92
2022-10-14T14:41:55.870Z,3.50
2022-10-14T14:44:26.652Z,4.10
2022-10-14T14:46:58.062Z,3.67
2022-10-14T14:49:35.668Z,3.83
2022-10-14T14:52:03.817Z,3.53
2022-10-14T14:54:31.149Z,3.95
2022-10-14T14:56:57.872Z,3.78
2022-10-14T14:59:36.344Z,3.65
2022-10-14T15:02:21.113Z,3.60
2022-10-14T15:05:00.257Z,3.22
2022-10-14T15:07:28.003Z,3.10
2022-10-14T15:09:57.854Z,3.33
2022-10-14T15:12:28.187Z,3.17
2022-10-14T15:14:59.640Z,3.13
2022-10-14T15:17:34.376Z,3.45
2022-10-14T15:20:29.116Z,3.30
2022-10-14T15:22:55.971Z,3.28
2022-10-14T15:25:29.303Z,3.30
2022-10-14T15:28:00.611Z,2.97
2022-10-14T15:30:39.135Z,3.20
2022-10-14T15:33:16.469Z,3.27
2022-10-14T15:35:45.412Z,3.20
2022-10-14T15:38:16.283Z,3.08
2022-10-14T15:40:43.677Z,3.42
2022-10-14T15:43:17.719Z,3.40
2022-10-14T15:46:08.340Z,3.22
2022-10-14T15:48:35.285Z,2.70
2022-10-14T15:51:02.076Z,2.58
2022-10-14T15:53:29.518Z,3.05
2022-10-14T15:55:56.101Z,2.80
2022-10-14T15:58:22.666Z,3.20
2022-10-14T16:00:49.394Z,2.95
2022-10-14T16:03:17.690Z,2.92
2022-10-14T16:05:44.358Z,2.80
2022-10-14T16:08:14.735Z,3.00
2022-10-14T16:10:45.670Z,2.80
2022-10-14T16:13:13.129Z,2.90
2022-10-14T16:15:42.477Z,3.00
2022-10-14T16:20:35.892Z,2.70
2022-10-14T16:23:04.574Z,2.80
2022-10-14T16:25:39.992Z,2.72
2022-10-14T16:28:09.964Z,2.70
2022-10-14T16:30:44.210Z,2.70
2022-10-14T16:35:43.308Z,2.28
2022-10-14T16:38:13.160Z,2.70
2022-10-14T16:40:39.813Z,2.72
2022-10-14T16:43:06.568Z,2.90
2022-10-14T16:45:33.347Z,2.70
2022-10-14T16:48:00.125Z,2.40
2022-10-14T16:50:26.866Z,2.80
2022-10-14T16:53:12.359Z,2.72
2022-10-14T16:55:39.352Z,2.60
2022-10-14T16:58:06.001Z,2.47
2022-10-14T17:00:32.855Z,2.60
2022-10-14T17:02:59.380Z,2.90
2022-10-14T17:05:27.074Z,2.70
2022-10-14T17:07:53.816Z,2.92
2022-10-14T17:10:21.424Z,2.80
2022-10-14T17:12:48.384Z,3.85
2022-10-14T17:15:15.069Z,3.72
2022-10-14T17:17:42.817Z,3.65
2022-10-14T17:20:09.922Z,3.60
2022-10-14T17:22:36.947Z,4.30
2022-10-14T17:25:05.134Z,4.80
2022-10-14T17:27:31.906Z,5.78
2022-10-14T17:29:59.199Z,5.03
2022-10-14T17:32:28.126Z,6.40
2022-10-14T17:34:54.908Z,5.85
2022-10-14T17:37:22.186Z,4.70
2022-10-14T17:39:49.008Z,4.13
2022-10-14T17:42:15.658Z,5.82
2022-10-14T17:44:43.733Z,6.57
2022-10-14T17:47:11.192Z,7.85
2022-10-14T17:49:37.882Z,8.00
2022-10-14T17:52:06.189Z,6.80
2022-10-14T17:54:32.873Z,7.50
2022-10-14T17:56:59.489Z,7.05
2022-10-14T17:59:26.050Z,6.25
2022-10-14T18:02:08.111Z,5.55
2022-10-14T18:04:35.026Z,5.22
2022-10-14T18:07:01.865Z,5.70
2022-10-14T18:09:28.409Z,5.20
2022-10-14T18:12:10.789Z,5.25
2022-10-14T18:14:38.933Z,4.88
2022-10-14T18:17:05.752Z,5.43
2022-10-14T18:19:32.783Z,4.80
2022-10-14T18:22:00.318Z,5.05
2022-10-14T18:24:27.129Z,4.72
2022-10-14T18:26:53.798Z,4.45
2022-10-14T18:29:20.843Z,4.60
2022-10-14T18:34:25.504Z,4.53
2022-10-14T18:36:52.246Z,4.07
2022-10-14T18:39:20.379Z,4.40
2022-10-14T18:41:47.384Z,4.38
2022-10-14T18:44:14.493Z,4.68
2022-10-14T18:46:41.307Z,4.18
2022-10-14T18:49:10.287Z,4.43
2022-10-14T18:51:39.296Z,4.53
2022-10-14T18:54:28.123Z,3.72
2022-10-14T18:56:55.683Z,3.92
2022-10-14T18:59:23.602Z,4.35
2022-10-14T19:01:53.226Z,4.10
2022-10-14T19:04:22.239Z,3.88
2022-10-14T19:06:49.793Z,4.18
2022-10-14T19:09:19.469Z,3.75
2022-10-14T19:11:47.874Z,4.20
2022-10-14T19:14:14.670Z,3.78
2022-10-14T19:16:41.654Z,3.63
2022-10-14T19:19:15.194Z,4.00
2022-10-14T19:21:43.586Z,3.53
2022-10-14T19:24:11.650Z,3.72
2022-10-14T19:26:41.709Z,3.80
2022-10-14T19:29:11.727Z,3.50
2022-10-14T19:31:39.842Z,3.63
2022-10-14T19:34:08.840Z,3.47
2022-10-14T19:36:39.512Z,3.28
2022-10-14T19:39:08.733Z,3.25
2022-10-14T19:41:43.153Z,3.50
2022-10-14T19:44:11.769Z,2.97
2022-10-14T19:46:38.740Z,3.33
2022-10-14T19:49:06.503Z,3.47
2022-10-14T19:51:34.792Z,3.13
2022-10-14T19:54:01.871Z,3.22
2022-10-14T19:56:29.518Z,3.33
2022-10-14T19:58:58.283Z,3.60
2022-10-14T20:01:28.281Z,3.80
2022-10-14T20:03:55.494Z,3.40
2022-10-14T20:06:23.522Z,3.03
2022-10-14T20:08:50.275Z,3.60
2022-10-14T20:11:19.849Z,3.35
2022-10-14T20:13:47.090Z,3.22
2022-10-14T20:16:14.542Z,3.20
2022-10-14T20:18:41.923Z,3.42
2022-10-14T20:21:11.673Z,2.80
2022-10-14T20:23:47.929Z,3.15
2022-10-14T20:26:19.649Z,3.10
2022-10-14T20:28:47.628Z,3.10
2022-10-14T20:31:20.405Z,3.05
2022-10-14T20:33:47.317Z,2.72
2022-10-14T20:36:19.966Z,3.28
2022-10-14T20:38:50.122Z,3.08
2022-10-14T20:41:22.709Z,2.80
2022-10-14T20:43:50.117Z,2.95
2022-10-14T20:46:17.279Z,2.85
2022-10-14T20:48:44.338Z,2.83
2022-10-14T20:51:13.542Z,2.45
2022-10-14T20:56:11.278Z,2.60
2022-10-14T20:58:38.571Z,2.53
2022-10-14T21:01:09.234Z,2.45
2022-10-14T21:03:36.387Z,2.95
2022-10-14T21:06:06.197Z,3.13
2022-10-14T21:08:33.044Z,2.70
2022-10-14T21:11:05.033Z,2.90
2022-10-14T21:13:33.569Z,2.30
2022-10-14T21:16:00.665Z,2.60
2022-10-14T21:18:27.753Z,2.33
2022-10-14T21:20:54.405Z,2.10
2022-10-14T21:23:21.154Z,2.30
2022-10-14T21:25:56.159Z,2.38
2022-10-14T21:28:23.366Z,2.63
2022-10-14T21:30:50.000Z,2.40
2022-10-14T21:33:16.746Z,2.67
2022-10-14T21:35:43.330Z,2.30
2022-10-14T21:38:09.949Z,2.17
2022-10-14T21:40:36.801Z,2.22
2022-10-14T21:43:03.517Z,2.35
2022-10-14T21:45:30.131Z,2.17
2022-10-14T21:50:28.480Z,2.05
2022-10-14T21:52:55.068Z,2.28
2022-10-14T21:55:21.679Z,2.20
2022-10-14T21:57:48.420Z,1.90
2022-10-14T22:00:15.099Z,1.90
2022-10-14T22:02:41.624Z,1.98
2022-10-14T22:05:08.461Z,2.50
2022-10-14T22:07:35.491Z,2.15
2022-10-14T22:10:02.261Z,2.25
2022-10-14T22:12:29.917Z,2.10
2022-10-14T22:14:56.523Z,1.65
2022-10-14T22:17:23.328Z,2.03
2022-10-14T22:19:50.561Z,1.95
2022-10-14T22:22:17.166Z,1.80
2022-10-14T22:24:43.785Z,2.13
2022-10-14T22:27:10.452Z,2.05
2022-10-14T22:29:37.805Z,1.90
2022-10-14T22:32:04.653Z,1.73
2022-10-14T22:34:31.363Z,2.00
2022-10-14T22:36:59.607Z,1.70
2022-10-14T22:39:27.144Z,2.13
2022-10-14T22:41:54.061Z,1.90
2022-10-14T22:44:20.681Z,1.75
2022-10-14T22:46:47.299Z,2.10
2022-10-14T22:49:13.967Z,1.60
2022-10-14T22:51:40.989Z,1.75
2022-10-14T22:54:08.037Z,1.50
2022-10-14T22:56:34.761Z,1.55
2022-10-14T22:59:11.739Z,1.88
2022-10-14T23:01:39.554Z,1.67
2022-10-14T23:04:06.266Z,1.30
2022-10-14T23:06:32.873Z,1.60
2022-10-14T23:09:02.840Z,1.77
2022-10-14T23:11:30.946Z,1.73
2022-10-14T23:14:00.198Z,1.67
2022-10-14T23:16:29.850Z,1.67
2022-10-14T23:18:58.307Z,2.00
2022-10-14T23:21:30.763Z,1.70
2022-10-14T23:23:59.875Z,1.60
2022-10-14T23:26:31.539Z,1.67
2022-10-14T23:28:59.478Z,1.65
2022-10-14T23:31:29.152Z,1.40
2022-10-14T23:33:58.641Z,1.73
2022-10-14T23:36:25.484Z,1.60
2022-10-14T23:38:55.278Z,1.70
2022-10-14T23:41:23.149Z,1.40
2022-10-14T23:43:51.534Z,1.80
2022-10-14T23:46:19.349Z,1.40
2022-10-14T23:48:55.338Z,1.70
2022-10-14T23:51:32.742Z,1.65
2022-10-14T23:53:59.382Z,1.60
2022-10-14T23:56:26.032Z,1.63
2022-10-14T23:58:52.727Z,1.45
